sensor_id;sensor_type;location;lat;lon;timestamp;temperature;humidity
12959;DHT22;6544;51.666;6.634;2023-05-10T00:01:07;13.30;99.90
12959;DHT22;6544;51.666;6.634;2023-05-10T00:03:36;13.20;99.90
12959;DHT22;6544;51.666;6.634;2023-05-10T00:06:03;13.20;99.90
12959;DHT22;6544;51.666;6.634;2023-05-10T00:08:30;13.20;99.90
12959;DHT22;6544;51.666;6.634;2023-05-10T00:10:56;13.20;99.90
12959;DHT22;6544;51.666;6.634;2023-05-10T00:13:23;13.10;99.90
12959;DHT22;6544;51.666;6.634;2023-05-10T00:15:50;13.20;99.90
12959;DHT22;6544;51.666;6.634;2023-05-10T00:18:17;13.30;99.90
12959;DHT22;6544;51.666;6.634;2023-05-10T00:20:45;13.30;99.90
12959;DHT22;6544;51.666;6.634;2023-05-10T00:23:14;13.40;99.90
12959;DHT22;6544;51.666;6.634;2023-05-10T00:25:41;13.40;99.90
12959;DHT22;6544;51.666;6.634;2023-05-10T00:28:08;13.40;99.90
12959;DHT22;6544;51.666;6.634;2023-05-10T00:30:35;13.40;99.90
12959;DHT22;6544;51.666;6.634;2023-05-10T00:33:01;13.30;99.90
12959;DHT22;6544;51.666;6.634;2023-05-10T00:35:28;13.30;99.90
12959;DHT22;6544;51.666;6.634;2023-05-10T00:37:56;13.30;99.90
12959;DHT22;6544;51.666;6.634;2023-05-10T00:40:23;13.30;99.90
12959;DHT22;6544;51.666;6.634;2023-05-10T00:42:50;13.30;99.90
12959;DHT22;6544;51.666;6.634;2023-05-10T00:45:17;13.30;99.90
12959;DHT22;6544;51.666;6.634;2023-05-10T00:47:45;13.40;99.90
12959;DHT22;6544;51.666;6.634;2023-05-10T00:50:12;13.30;99.90
12959;DHT22;6544;51.666;6.634;2023-05-10T00:52:39;13.30;99.90
12959;DHT22;6544;51.666;6.634;2023-05-10T00:55:09;13.50;99.90
12959;DHT22;6544;51.666;6.634;2023-05-10T00:57:38;13.70;99.90
12959;DHT22;6544;51.666;6.634;2023-05-10T01:00:06;13.80;99.90
12959;DHT22;6544;51.666;6.634;2023-05-10T01:02:33;13.60;99.90
12959;DHT22;6544;51.666;6.634;2023-05-10T01:05:02;13.60;99.90
12959;DHT22;6544;51.666;6.634;2023-05-10T01:07:30;13.80;99.90
12959;DHT22;6544;51.666;6.634;2023-05-10T01:13:31;14.10;99.90
12959;DHT22;6544;51.666;6.634;2023-05-10T01:15:59;14.20;99.90
12959;DHT22;6544;51.666;6.634;2023-05-10T01:18:28;14.00;99.90
12959;DHT22;6544;51.666;6.634;2023-05-10T01:21:07;14.10;99.90
12959;DHT22;6544;51.666;6.634;2023-05-10T01:30:05;14.00;99.90
12959;DHT22;6544;51.666;6.634;2023-05-10T01:32:38;14.10;99.90
12959;DHT22;6544;51.666;6.634;2023-05-10T01:35:13;14.00;99.90
12959;DHT22;6544;51.666;6.634;2023-05-10T01:37:46;14.20;99.90
12959;DHT22;6544;51.666;6.634;2023-05-10T01:40:20;14.30;99.90
12959;DHT22;6544;51.666;6.634;2023-05-10T01:42:53;14.30;99.90
12959;DHT22;6544;51.666;6.634;2023-05-10T01:45:27;14.10;99.90
12959;DHT22;6544;51.666;6.634;2023-05-10T01:48:03;14.10;99.90
12959;DHT22;6544;51.666;6.634;2023-05-10T01:50:33;14.10;99.90
12959;DHT22;6544;51.666;6.634;2023-05-10T01:53:02;14.10;99.90
12959;DHT22;6544;51.666;6.634;2023-05-10T01:55:34;14.20;99.90
12959;DHT22;6544;51.666;6.634;2023-05-10T01:58:07;14.30;99.90
12959;DHT22;6544;51.666;6.634;2023-05-10T02:00:35;14.20;99.90
12959;DHT22;6544;51.666;6.634;2023-05-10T02:03:07;14.30;99.90
12959;DHT22;6544;51.666;6.634;2023-05-10T02:05:36;14.30;99.90
12959;DHT22;6544;51.666;6.634;2023-05-10T02:08:05;14.40;99.90
12959;DHT22;6544;51.666;6.634;2023-05-10T02:10:34;14.40;99.90
12959;DHT22;6544;51.666;6.634;2023-05-10T02:13:10;14.50;99.90
12959;DHT22;6544;51.666;6.634;2023-05-10T02:15:38;14.60;99.90
12959;DHT22;6544;51.666;6.634;2023-05-10T02:18:09;14.60;99.90
12959;DHT22;6544;51.666;6.634;2023-05-10T02:20:37;14.60;99.90
12959;DHT22;6544;51.666;6.634;2023-05-10T02:23:05;14.60;95.20
12959;DHT22;6544;51.666;6.634;2023-05-10T02:25:33;14.30;39.90
12959;DHT22;6544;51.666;6.634;2023-05-10T02:28:02;14.40;1.00
12959;DHT22;6544;51.666;6.634;2023-05-10T02:30:31;14.50;1.00
12959;DHT22;6544;51.666;6.634;2023-05-10T02:32:59;14.50;99.90
12959;DHT22;6544;51.666;6.634;2023-05-10T02:35:29;14.60;1.00
12959;DHT22;6544;51.666;6.634;2023-05-10T02:37:58;14.70;1.00
12959;DHT22;6544;51.666;6.634;2023-05-10T02:40:26;14.50;99.90
12959;DHT22;6544;51.666;6.634;2023-05-10T02:42:55;14.60;99.90
12959;DHT22;6544;51.666;6.634;2023-05-10T02:45:28;14.60;99.90
12959;DHT22;6544;51.666;6.634;2023-05-10T02:47:56;14.70;1.00
12959;DHT22;6544;51.666;6.634;2023-05-10T02:50:28;14.70;99.90
12959;DHT22;6544;51.666;6.634;2023-05-10T02:53:06;14.70;1.00
12959;DHT22;6544;51.666;6.634;2023-05-10T02:55:37;14.80;1.00
12959;DHT22;6544;51.666;6.634;2023-05-10T02:58:04;14.70;1.00
12959;DHT22;6544;51.666;6.634;2023-05-10T03:00:31;14.70;1.00
12959;DHT22;6544;51.666;6.634;2023-05-10T03:02:58;14.70;1.00
12959;DHT22;6544;51.666;6.634;2023-05-10T03:05:25;14.40;1.00
12959;DHT22;6544;51.666;6.634;2023-05-10T03:07:54;14.30;1.00
12959;DHT22;6544;51.666;6.634;2023-05-10T03:10:26;14.30;99.90
12959;DHT22;6544;51.666;6.634;2023-05-10T03:13:05;14.40;21.90
12959;DHT22;6544;51.666;6.634;2023-05-10T03:15:37;14.40;99.90
12959;DHT22;6544;51.666;6.634;2023-05-10T03:18:17;14.20;1.00
12959;DHT22;6544;51.666;6.634;2023-05-10T03:20:47;14.30;99.90
12959;DHT22;6544;51.666;6.634;2023-05-10T03:23:21;14.30;99.90
12959;DHT22;6544;51.666;6.634;2023-05-10T03:25:50;14.20;1.00
12959;DHT22;6544;51.666;6.634;2023-05-10T03:28:18;14.30;99.90
12959;DHT22;6544;51.666;6.634;2023-05-10T03:30:47;14.40;99.90
12959;DHT22;6544;51.666;6.634;2023-05-10T03:33:14;14.30;1.00
12959;DHT22;6544;51.666;6.634;2023-05-10T03:35:41;14.50;1.00
12959;DHT22;6544;51.666;6.634;2023-05-10T03:38:09;14.60;99.90
12959;DHT22;6544;51.666;6.634;2023-05-10T03:40:37;14.60;99.90
12959;DHT22;6544;51.666;6.634;2023-05-10T03:43:05;14.60;99.90
12959;DHT22;6544;51.666;6.634;2023-05-10T03:45:32;14.30;99.90
12959;DHT22;6544;51.666;6.634;2023-05-10T03:47:59;14.40;1.00
12959;DHT22;6544;51.666;6.634;2023-05-10T03:50:26;14.50;1.00
12959;DHT22;6544;51.666;6.634;2023-05-10T03:52:52;14.50;16.10
12959;DHT22;6544;51.666;6.634;2023-05-10T03:55:19;14.60;1.00
12959;DHT22;6544;51.666;6.634;2023-05-10T03:57:49;14.60;1.00
12959;DHT22;6544;51.666;6.634;2023-05-10T04:00:16;14.60;99.90
12959;DHT22;6544;51.666;6.634;2023-05-10T04:02:43;14.60;1.00
12959;DHT22;6544;51.666;6.634;2023-05-10T04:05:10;14.60;1.00
12959;DHT22;6544;51.666;6.634;2023-05-10T04:07:37;14.50;1.00
12959;DHT22;6544;51.666;6.634;2023-05-10T04:10:04;14.50;1.00
12959;DHT22;6544;51.666;6.634;2023-05-10T04:12:31;14.60;99.90
12959;DHT22;6544;51.666;6.634;2023-05-10T04:15:00;14.60;1.00
12959;DHT22;6544;51.666;6.634;2023-05-10T04:17:27;14.60;1.00
12959;DHT22;6544;51.666;6.634;2023-05-10T04:19:54;14.50;99.90
12959;DHT22;6544;51.666;6.634;2023-05-10T04:22:21;14.50;99.90
12959;DHT22;6544;51.666;6.634;2023-05-10T04:24:48;14.50;1.00
12959;DHT22;6544;51.666;6.634;2023-05-10T04:27:14;14.50;99.90
12959;DHT22;6544;51.666;6.634;2023-05-10T04:29:41;14.50;99.90
12959;DHT22;6544;51.666;6.634;2023-05-10T04:32:10;14.30;1.00
12959;DHT22;6544;51.666;6.634;2023-05-10T04:34:37;14.10;1.00
12959;DHT22;6544;51.666;6.634;2023-05-10T04:37:04;14.20;1.00
12959;DHT22;6544;51.666;6.634;2023-05-10T04:39:30;14.20;1.00
12959;DHT22;6544;51.666;6.634;2023-05-10T04:41:57;14.20;1.00
12959;DHT22;6544;51.666;6.634;2023-05-10T04:44:24;14.10;1.00
12959;DHT22;6544;51.666;6.634;2023-05-10T04:46:51;14.20;1.00
12959;DHT22;6544;51.666;6.634;2023-05-10T04:49:19;14.30;1.00
12959;DHT22;6544;51.666;6.634;2023-05-10T04:51:47;14.20;1.00
12959;DHT22;6544;51.666;6.634;2023-05-10T04:54:14;14.10;1.00
12959;DHT22;6544;51.666;6.634;2023-05-10T04:56:41;13.70;1.00
12959;DHT22;6544;51.666;6.634;2023-05-10T04:59:07;13.80;99.90
12959;DHT22;6544;51.666;6.634;2023-05-10T05:01:35;13.70;99.90
12959;DHT22;6544;51.666;6.634;2023-05-10T05:04:01;13.60;99.90
12959;DHT22;6544;51.666;6.634;2023-05-10T05:06:30;13.70;99.90
12959;DHT22;6544;51.666;6.634;2023-05-10T05:08:56;13.60;99.90
12959;DHT22;6544;51.666;6.634;2023-05-10T05:11:23;13.60;99.90
12959;DHT22;6544;51.666;6.634;2023-05-10T05:13:51;13.70;99.90
12959;DHT22;6544;51.666;6.634;2023-05-10T05:16:17;13.60;99.90
12959;DHT22;6544;51.666;6.634;2023-05-10T05:18:44;13.60;99.90
12959;DHT22;6544;51.666;6.634;2023-05-10T05:21:15;13.60;99.90
12959;DHT22;6544;51.666;6.634;2023-05-10T05:23:44;13.50;99.90
12959;DHT22;6544;51.666;6.634;2023-05-10T05:26:11;13.50;99.90
12959;DHT22;6544;51.666;6.634;2023-05-10T05:28:38;13.50;99.90
12959;DHT22;6544;51.666;6.634;2023-05-10T05:31:05;13.50;99.90
12959;DHT22;6544;51.666;6.634;2023-05-10T05:33:40;13.50;99.90
12959;DHT22;6544;51.666;6.634;2023-05-10T05:36:07;13.60;99.90
12959;DHT22;6544;51.666;6.634;2023-05-10T05:38:34;13.70;99.90
12959;DHT22;6544;51.666;6.634;2023-05-10T05:41:02;13.70;99.90
12959;DHT22;6544;51.666;6.634;2023-05-10T05:43:29;13.80;99.90
12959;DHT22;6544;51.666;6.634;2023-05-10T05:45:56;14.00;99.90
12959;DHT22;6544;51.666;6.634;2023-05-10T05:48:23;14.10;99.90
12959;DHT22;6544;51.666;6.634;2023-05-10T05:50:53;14.20;99.90
12959;DHT22;6544;51.666;6.634;2023-05-10T05:53:20;14.20;1.00
12959;DHT22;6544;51.666;6.634;2023-05-10T05:55:51;14.20;1.00
12959;DHT22;6544;51.666;6.634;2023-05-10T05:58:21;14.20;1.00
12959;DHT22;6544;51.666;6.634;2023-05-10T06:00:48;14.30;1.00
12959;DHT22;6544;51.666;6.634;2023-05-10T06:03:15;14.30;1.00
12959;DHT22;6544;51.666;6.634;2023-05-10T06:05:41;14.40;1.00
12959;DHT22;6544;51.666;6.634;2023-05-10T06:08:08;14.40;1.00
12959;DHT22;6544;51.666;6.634;2023-05-10T06:10:35;14.30;1.00
12959;DHT22;6544;51.666;6.634;2023-05-10T06:13:02;14.40;31.90
12959;DHT22;6544;51.666;6.634;2023-05-10T06:15:31;14.30;99.90
12959;DHT22;6544;51.666;6.634;2023-05-10T06:17:59;14.40;1.00
12959;DHT22;6544;51.666;6.634;2023-05-10T06:20:26;14.50;1.00
12959;DHT22;6544;51.666;6.634;2023-05-10T06:22:52;14.60;1.00
12959;DHT22;6544;51.666;6.634;2023-05-10T06:25:19;14.60;1.00
12959;DHT22;6544;51.666;6.634;2023-05-10T06:27:46;14.70;1.00
12959;DHT22;6544;51.666;6.634;2023-05-10T06:30:14;14.70;1.00
12959;DHT22;6544;51.666;6.634;2023-05-10T06:32:42;14.70;1.00
12959;DHT22;6544;51.666;6.634;2023-05-10T06:35:10;14.70;1.00
12959;DHT22;6544;51.666;6.634;2023-05-10T06:37:37;14.80;99.90
12959;DHT22;6544;51.666;6.634;2023-05-10T06:40:05;14.80;1.00
12959;DHT22;6544;51.666;6.634;2023-05-10T06:42:33;14.80;99.90
12959;DHT22;6544;51.666;6.634;2023-05-10T06:44:59;14.80;1.00
12959;DHT22;6544;51.666;6.634;2023-05-10T06:47:26;14.70;1.00
12959;DHT22;6544;51.666;6.634;2023-05-10T06:49:55;14.80;99.90
12959;DHT22;6544;51.666;6.634;2023-05-10T06:52:22;14.80;1.00
12959;DHT22;6544;51.666;6.634;2023-05-10T06:54:49;14.80;1.00
12959;DHT22;6544;51.666;6.634;2023-05-10T06:57:15;14.90;99.90
12959;DHT22;6544;51.666;6.634;2023-05-10T06:59:43;14.70;99.90
12959;DHT22;6544;51.666;6.634;2023-05-10T07:02:10;14.60;99.90
12959;DHT22;6544;51.666;6.634;2023-05-10T07:04:37;14.60;1.00
12959;DHT22;6544;51.666;6.634;2023-05-10T07:07:05;14.60;1.00
12959;DHT22;6544;51.666;6.634;2023-05-10T07:09:32;14.70;99.90
12959;DHT22;6544;51.666;6.634;2023-05-10T07:11:59;14.80;99.90
12959;DHT22;6544;51.666;6.634;2023-05-10T07:14:27;14.80;99.90
12959;DHT22;6544;51.666;6.634;2023-05-10T07:16:54;14.90;99.90
12959;DHT22;6544;51.666;6.634;2023-05-10T07:19:21;14.70;1.00
12959;DHT22;6544;51.666;6.634;2023-05-10T07:21:48;14.80;99.90
12959;DHT22;6544;51.666;6.634;2023-05-10T07:24:17;14.80;5.50
12959;DHT22;6544;51.666;6.634;2023-05-10T07:26:44;14.60;1.00
12959;DHT22;6544;51.666;6.634;2023-05-10T07:29:10;14.60;1.00
12959;DHT22;6544;51.666;6.634;2023-05-10T07:31:37;14.70;99.90
12959;DHT22;6544;51.666;6.634;2023-05-10T07:34:04;14.80;1.00
12959;DHT22;6544;51.666;6.634;2023-05-10T07:36:31;14.80;1.00
12959;DHT22;6544;51.666;6.634;2023-05-10T07:38:58;14.80;99.90
12959;DHT22;6544;51.666;6.634;2023-05-10T07:41:26;14.80;1.00
12959;DHT22;6544;51.666;6.634;2023-05-10T07:43:53;14.90;1.00
12959;DHT22;6544;51.666;6.634;2023-05-10T07:46:20;14.90;61.00
12959;DHT22;6544;51.666;6.634;2023-05-10T07:48:47;15.00;99.90
12959;DHT22;6544;51.666;6.634;2023-05-10T07:51:14;15.10;1.00
12959;DHT22;6544;51.666;6.634;2023-05-10T07:53:41;15.10;99.90
12959;DHT22;6544;51.666;6.634;2023-05-10T07:56:22;15.20;1.00
12959;DHT22;6544;51.666;6.634;2023-05-10T07:58:51;15.10;1.00
12959;DHT22;6544;51.666;6.634;2023-05-10T08:01:18;15.20;99.90
12959;DHT22;6544;51.666;6.634;2023-05-10T08:03:45;15.10;1.00
12959;DHT22;6544;51.666;6.634;2023-05-10T08:06:12;15.20;99.90
12959;DHT22;6544;51.666;6.634;2023-05-10T08:08:39;15.20;99.90
12959;DHT22;6544;51.666;6.634;2023-05-10T08:11:05;15.10;1.00
12959;DHT22;6544;51.666;6.634;2023-05-10T08:13:32;15.20;1.00
12959;DHT22;6544;51.666;6.634;2023-05-10T08:16:01;15.20;1.00
12959;DHT22;6544;51.666;6.634;2023-05-10T08:18:27;15.30;99.90
12959;DHT22;6544;51.666;6.634;2023-05-10T08:20:54;15.30;99.90
12959;DHT22;6544;51.666;6.634;2023-05-10T08:23:21;15.30;1.00
12959;DHT22;6544;51.666;6.634;2023-05-10T08:25:48;15.20;99.90
12959;DHT22;6544;51.666;6.634;2023-05-10T08:28:15;15.30;1.00
12959;DHT22;6544;51.666;6.634;2023-05-10T08:30:42;15.30;99.90
12959;DHT22;6544;51.666;6.634;2023-05-10T08:33:10;15.40;99.90
12959;DHT22;6544;51.666;6.634;2023-05-10T08:35:37;15.40;99.90
12959;DHT22;6544;51.666;6.634;2023-05-10T08:38:04;15.20;99.90
12959;DHT22;6544;51.666;6.634;2023-05-10T08:40:31;15.30;1.00
12959;DHT22;6544;51.666;6.634;2023-05-10T08:43:04;15.20;1.00
12959;DHT22;6544;51.666;6.634;2023-05-10T08:45:33;15.00;1.00
12959;DHT22;6544;51.666;6.634;2023-05-10T08:48:02;15.10;1.00
12959;DHT22;6544;51.666;6.634;2023-05-10T08:50:31;15.10;1.00
12959;DHT22;6544;51.666;6.634;2023-05-10T08:53:00;15.10;1.00
12959;DHT22;6544;51.666;6.634;2023-05-10T08:55:30;15.10;1.00
12959;DHT22;6544;51.666;6.634;2023-05-10T08:57:59;15.10;1.00
12959;DHT22;6544;51.666;6.634;2023-05-10T09:00:26;15.00;1.00
12959;DHT22;6544;51.666;6.634;2023-05-10T09:02:53;15.00;1.00
12959;DHT22;6544;51.666;6.634;2023-05-10T09:05:21;14.80;99.90
12959;DHT22;6544;51.666;6.634;2023-05-10T09:07:49;14.80;6.10
12959;DHT22;6544;51.666;6.634;2023-05-10T09:10:16;14.80;99.90
12959;DHT22;6544;51.666;6.634;2023-05-10T09:12:44;14.90;99.90
12959;DHT22;6544;51.666;6.634;2023-05-10T09:15:12;15.00;99.90
12959;DHT22;6544;51.666;6.634;2023-05-10T09:17:42;15.10;1.00
12959;DHT22;6544;51.666;6.634;2023-05-10T09:20:10;15.00;1.00
12959;DHT22;6544;51.666;6.634;2023-05-10T09:22:37;15.00;1.00
12959;DHT22;6544;51.666;6.634;2023-05-10T09:25:07;14.90;1.00
12959;DHT22;6544;51.666;6.634;2023-05-10T09:27:36;14.70;1.00
12959;DHT22;6544;51.666;6.634;2023-05-10T09:30:04;14.60;1.00
12959;DHT22;6544;51.666;6.634;2023-05-10T09:32:39;14.50;26.10
12959;DHT22;6544;51.666;6.634;2023-05-10T09:35:10;14.70;99.90
12959;DHT22;6544;51.666;6.634;2023-05-10T09:37:39;14.90;1.00
12959;DHT22;6544;51.666;6.634;2023-05-10T09:40:12;14.90;1.00
12959;DHT22;6544;51.666;6.634;2023-05-10T09:42:41;15.00;1.00
12959;DHT22;6544;51.666;6.634;2023-05-10T09:45:09;15.10;1.00
12959;DHT22;6544;51.666;6.634;2023-05-10T09:47:36;14.80;1.00
12959;DHT22;6544;51.666;6.634;2023-05-10T09:50:04;14.70;1.00
12959;DHT22;6544;51.666;6.634;2023-05-10T09:52:46;14.70;1.00
12959;DHT22;6544;51.666;6.634;2023-05-10T09:55:15;14.70;12.60
12959;DHT22;6544;51.666;6.634;2023-05-10T09:57:42;14.90;85.30
12959;DHT22;6544;51.666;6.634;2023-05-10T10:00:09;15.10;1.00
12959;DHT22;6544;51.666;6.634;2023-05-10T10:02:38;15.10;1.00
12959;DHT22;6544;51.666;6.634;2023-05-10T10:05:07;15.20;1.00
12959;DHT22;6544;51.666;6.634;2023-05-10T10:07:34;15.20;1.00
12959;DHT22;6544;51.666;6.634;2023-05-10T10:10:02;15.30;1.00
12959;DHT22;6544;51.666;6.634;2023-05-10T10:12:31;15.30;1.00
12959;DHT22;6544;51.666;6.634;2023-05-10T10:14:59;15.40;1.00
12959;DHT22;6544;51.666;6.634;2023-05-10T10:17:27;15.40;99.90
12959;DHT22;6544;51.666;6.634;2023-05-10T10:19:55;15.40;99.90
12959;DHT22;6544;51.666;6.634;2023-05-10T10:22:23;15.50;99.90
12959;DHT22;6544;51.666;6.634;2023-05-10T10:24:50;15.50;99.90
12959;DHT22;6544;51.666;6.634;2023-05-10T10:27:23;15.40;99.90
12959;DHT22;6544;51.666;6.634;2023-05-10T10:30:03;15.10;1.00
12959;DHT22;6544;51.666;6.634;2023-05-10T10:32:38;14.90;83.60
12959;DHT22;6544;51.666;6.634;2023-05-10T10:35:09;15.10;99.90
12959;DHT22;6544;51.666;6.634;2023-05-10T10:37:46;15.10;99.90
12959;DHT22;6544;51.666;6.634;2023-05-10T10:40:26;15.10;99.90
12959;DHT22;6544;51.666;6.634;2023-05-10T10:42:54;15.00;99.90
12959;DHT22;6544;51.666;6.634;2023-05-10T10:45:23;15.20;99.90
12959;DHT22;6544;51.666;6.634;2023-05-10T10:50:43;15.00;99.90
12959;DHT22;6544;51.666;6.634;2023-05-10T10:53:11;15.20;99.90
12959;DHT22;6544;51.666;6.634;2023-05-10T11:21:09;15.20;91.40
12959;DHT22;6544;51.666;6.634;2023-05-10T11:23:49;15.20;92.90
12959;DHT22;6544;51.666;6.634;2023-05-10T11:26:17;15.30;1.00
12959;DHT22;6544;51.666;6.634;2023-05-10T11:28:44;15.40;1.00
12959;DHT22;6544;51.666;6.634;2023-05-10T11:31:13;15.50;1.00
12959;DHT22;6544;51.666;6.634;2023-05-10T11:33:44;15.50;1.00
12959;DHT22;6544;51.666;6.634;2023-05-10T11:36:14;15.70;1.00
12959;DHT22;6544;51.666;6.634;2023-05-10T11:38:42;15.70;1.00
12959;DHT22;6544;51.666;6.634;2023-05-10T11:41:09;15.80;99.90
12959;DHT22;6544;51.666;6.634;2023-05-10T11:43:38;15.70;99.90
12959;DHT22;6544;51.666;6.634;2023-05-10T11:46:05;15.80;99.90
12959;DHT22;6544;51.666;6.634;2023-05-10T11:48:32;16.00;99.90
12959;DHT22;6544;51.666;6.634;2023-05-10T11:51:00;16.00;99.90
12959;DHT22;6544;51.666;6.634;2023-05-10T11:53:29;16.10;99.90
12959;DHT22;6544;51.666;6.634;2023-05-10T11:56:02;16.10;99.90
12959;DHT22;6544;51.666;6.634;2023-05-10T11:58:30;16.10;99.90
12959;DHT22;6544;51.666;6.634;2023-05-10T12:01:00;16.20;99.90
12959;DHT22;6544;51.666;6.634;2023-05-10T12:03:28;16.30;99.90
12959;DHT22;6544;51.666;6.634;2023-05-10T12:05:56;16.30;99.90
12959;DHT22;6544;51.666;6.634;2023-05-10T12:08:25;16.40;90.80
12959;DHT22;6544;51.666;6.634;2023-05-10T12:11:04;16.50;93.60
12959;DHT22;6544;51.666;6.634;2023-05-10T12:13:32;16.70;99.90
12959;DHT22;6544;51.666;6.634;2023-05-10T12:15:59;16.70;41.30
12959;DHT22;6544;51.666;6.634;2023-05-10T12:18:26;16.80;46.00
12959;DHT22;6544;51.666;6.634;2023-05-10T12:20:53;16.90;1.00
12959;DHT22;6544;51.666;6.634;2023-05-10T12:23:20;16.60;1.00
12959;DHT22;6544;51.666;6.634;2023-05-10T12:25:47;16.90;1.00
12959;DHT22;6544;51.666;6.634;2023-05-10T12:28:19;17.00;1.00
12959;DHT22;6544;51.666;6.634;2023-05-10T12:30:46;16.80;1.00
12959;DHT22;6544;51.666;6.634;2023-05-10T12:33:14;17.00;1.00
12959;DHT22;6544;51.666;6.634;2023-05-10T12:35:46;16.90;1.00
12959;DHT22;6544;51.666;6.634;2023-05-10T12:38:36;16.80;1.00
12959;DHT22;6544;51.666;6.634;2023-05-10T12:41:05;16.90;1.00
12959;DHT22;6544;51.666;6.634;2023-05-10T12:43:34;17.00;1.00
12959;DHT22;6544;51.666;6.634;2023-05-10T12:46:05;17.00;1.00
12959;DHT22;6544;51.666;6.634;2023-05-10T12:48:32;17.00;1.00
12959;DHT22;6544;51.666;6.634;2023-05-10T12:51:00;17.20;1.00
12959;DHT22;6544;51.666;6.634;2023-05-10T12:53:27;16.90;1.00
12959;DHT22;6544;51.666;6.634;2023-05-10T12:55:54;17.20;1.00
12959;DHT22;6544;51.666;6.634;2023-05-10T12:58:21;17.10;1.00
12959;DHT22;6544;51.666;6.634;2023-05-10T13:00:50;16.70;1.00
12959;DHT22;6544;51.666;6.634;2023-05-10T13:03:18;16.40;1.00
12959;DHT22;6544;51.666;6.634;2023-05-10T13:05:45;16.30;33.40
12959;DHT22;6544;51.666;6.634;2023-05-10T13:08:12;16.00;99.70
12959;DHT22;6544;51.666;6.634;2023-05-10T13:10:42;15.90;99.90
12959;DHT22;6544;51.666;6.634;2023-05-10T13:13:09;16.20;99.90
12959;DHT22;6544;51.666;6.634;2023-05-10T13:15:36;16.40;46.70
12959;DHT22;6544;51.666;6.634;2023-05-10T13:18:04;16.50;59.00
12959;DHT22;6544;51.666;6.634;2023-05-10T13:20:31;16.30;1.00
12959;DHT22;6544;51.666;6.634;2023-05-10T13:22:58;16.20;78.00
12959;DHT22;6544;51.666;6.634;2023-05-10T13:25:25;16.60;99.90
12959;DHT22;6544;51.666;6.634;2023-05-10T13:27:52;16.90;1.00
12959;DHT22;6544;51.666;6.634;2023-05-10T13:30:19;17.10;1.00
12959;DHT22;6544;51.666;6.634;2023-05-10T13:32:46;17.30;1.00
12959;DHT22;6544;51.666;6.634;2023-05-10T13:35:14;17.30;1.00
12959;DHT22;6544;51.666;6.634;2023-05-10T13:37:43;17.30;1.00
12959;DHT22;6544;51.666;6.634;2023-05-10T13:40:10;17.30;1.00
12959;DHT22;6544;51.666;6.634;2023-05-10T13:42:37;17.50;1.00
12959;DHT22;6544;51.666;6.634;2023-05-10T13:45:06;17.60;1.00
12959;DHT22;6544;51.666;6.634;2023-05-10T13:47:33;17.70;1.00
12959;DHT22;6544;51.666;6.634;2023-05-10T13:49:59;17.80;1.00
12959;DHT22;6544;51.666;6.634;2023-05-10T13:52:28;17.80;1.00
12959;DHT22;6544;51.666;6.634;2023-05-10T13:54:55;17.90;1.00
12959;DHT22;6544;51.666;6.634;2023-05-10T13:57:22;17.90;1.00
12959;DHT22;6544;51.666;6.634;2023-05-10T13:59:49;18.00;1.00
12959;DHT22;6544;51.666;6.634;2023-05-10T14:02:16;17.80;1.00
12959;DHT22;6544;51.666;6.634;2023-05-10T14:04:43;17.70;1.00
12959;DHT22;6544;51.666;6.634;2023-05-10T14:07:10;17.90;1.00
12959;DHT22;6544;51.666;6.634;2023-05-10T14:09:38;18.00;1.00
12959;DHT22;6544;51.666;6.634;2023-05-10T14:12:05;18.00;1.00
12959;DHT22;6544;51.666;6.634;2023-05-10T14:14:32;17.90;1.00
12959;DHT22;6544;51.666;6.634;2023-05-10T14:16:59;18.00;1.00
12959;DHT22;6544;51.666;6.634;2023-05-10T14:19:26;18.10;1.00
12959;DHT22;6544;51.666;6.634;2023-05-10T14:21:59;18.10;1.00
12959;DHT22;6544;51.666;6.634;2023-05-10T14:24:26;18.20;1.00
12959;DHT22;6544;51.666;6.634;2023-05-10T14:26:54;18.10;1.00
12959;DHT22;6544;51.666;6.634;2023-05-10T14:29:22;17.90;1.00
12959;DHT22;6544;51.666;6.634;2023-05-10T14:31:49;17.90;1.00
12959;DHT22;6544;51.666;6.634;2023-05-10T14:34:16;18.00;1.00
12959;DHT22;6544;51.666;6.634;2023-05-10T14:36:43;17.90;1.00
12959;DHT22;6544;51.666;6.634;2023-05-10T14:39:10;18.00;1.00
12959;DHT22;6544;51.666;6.634;2023-05-10T14:41:38;18.10;1.00
12959;DHT22;6544;51.666;6.634;2023-05-10T14:44:07;17.60;1.00
12959;DHT22;6544;51.666;6.634;2023-05-10T14:46:35;17.20;1.00
12959;DHT22;6544;51.666;6.634;2023-05-10T14:49:02;17.50;1.00
12959;DHT22;6544;51.666;6.634;2023-05-10T14:51:29;17.80;1.00
12959;DHT22;6544;51.666;6.634;2023-05-10T14:53:57;17.90;1.00
12959;DHT22;6544;51.666;6.634;2023-05-10T14:56:24;17.90;1.00
12959;DHT22;6544;51.666;6.634;2023-05-10T14:58:51;17.90;1.00
12959;DHT22;6544;51.666;6.634;2023-05-10T15:01:19;17.80;1.00
12959;DHT22;6544;51.666;6.634;2023-05-10T15:03:46;17.20;1.00
12959;DHT22;6544;51.666;6.634;2023-05-10T15:06:14;17.30;1.00
12959;DHT22;6544;51.666;6.634;2023-05-10T15:08:41;16.60;1.00
12959;DHT22;6544;51.666;6.634;2023-05-10T15:11:09;16.60;1.00
12959;DHT22;6544;51.666;6.634;2023-05-10T15:13:36;16.40;1.00
12959;DHT22;6544;51.666;6.634;2023-05-10T15:16:03;16.00;16.10
12959;DHT22;6544;51.666;6.634;2023-05-10T15:18:31;16.10;21.70
12959;DHT22;6544;51.666;6.634;2023-05-10T15:20:58;16.20;1.00
12959;DHT22;6544;51.666;6.634;2023-05-10T15:23:26;16.20;1.00
12959;DHT22;6544;51.666;6.634;2023-05-10T15:25:54;16.60;1.00
12959;DHT22;6544;51.666;6.634;2023-05-10T15:28:21;16.50;1.00
12959;DHT22;6544;51.666;6.634;2023-05-10T15:30:48;16.10;1.00
12959;DHT22;6544;51.666;6.634;2023-05-10T15:33:15;15.80;27.80
12959;DHT22;6544;51.666;6.634;2023-05-10T15:35:43;16.00;99.90
12959;DHT22;6544;51.666;6.634;2023-05-10T15:38:10;16.00;49.40
12959;DHT22;6544;51.666;6.634;2023-05-10T15:40:37;15.50;99.90
12959;DHT22;6544;51.666;6.634;2023-05-10T15:43:04;15.40;99.90
12959;DHT22;6544;51.666;6.634;2023-05-10T15:45:31;15.50;99.90
12959;DHT22;6544;51.666;6.634;2023-05-10T15:47:58;15.80;99.90
12959;DHT22;6544;51.666;6.634;2023-05-10T15:50:25;15.80;99.90
12959;DHT22;6544;51.666;6.634;2023-05-10T15:52:53;15.50;99.90
12959;DHT22;6544;51.666;6.634;2023-05-10T15:55:20;15.80;99.90
12959;DHT22;6544;51.666;6.634;2023-05-10T15:57:47;15.50;99.90
12959;DHT22;6544;51.666;6.634;2023-05-10T16:00:15;15.20;1.00
12959;DHT22;6544;51.666;6.634;2023-05-10T16:02:46;15.30;1.00
12959;DHT22;6544;51.666;6.634;2023-05-10T16:05:13;15.50;1.00
12959;DHT22;6544;51.666;6.634;2023-05-10T16:07:40;15.00;1.00
12959;DHT22;6544;51.666;6.634;2023-05-10T16:10:10;14.90;1.00
12959;DHT22;6544;51.666;6.634;2023-05-10T16:12:37;15.10;1.00
12959;DHT22;6544;51.666;6.634;2023-05-10T16:15:05;15.50;1.00
12959;DHT22;6544;51.666;6.634;2023-05-10T16:17:32;15.60;1.00
12959;DHT22;6544;51.666;6.634;2023-05-10T16:19:59;15.50;1.00
12959;DHT22;6544;51.666;6.634;2023-05-10T16:22:26;15.70;99.90
12959;DHT22;6544;51.666;6.634;2023-05-10T16:24:54;15.70;99.90
12959;DHT22;6544;51.666;6.634;2023-05-10T16:27:22;15.80;99.90
12959;DHT22;6544;51.666;6.634;2023-05-10T16:29:49;15.70;99.90
12959;DHT22;6544;51.666;6.634;2023-05-10T16:32:16;15.70;99.90
12959;DHT22;6544;51.666;6.634;2023-05-10T16:34:43;15.50;99.90
12959;DHT22;6544;51.666;6.634;2023-05-10T16:37:10;15.70;99.90
12959;DHT22;6544;51.666;6.634;2023-05-10T16:39:37;15.50;99.90